Time;durP1;ratioP1;P1;durP2;ratioP2;P2;SDS_P1;SDS_P2;PMS_P1;PMS_P2;Temp;Humidity;BMP_temperature;BMP_pressure;BME280_temperature;BME280_humidity;BME280_pressure;Samples;Min_cycle;Max_cycle;Signal;HPM_P1;HPM_P2
2022/04/06 00:01:41;;;;;;;1.53;1.20;;;10.50;98.20;;;;;;5073590;28;20468;-76
2022/04/06 00:04:08;;;;;;;1.57;1.10;;;10.50;98.20;;;;;;5073774;28;20465;-76
2022/04/06 00:06:36;;;;;;;1.53;1.10;;;10.50;98.20;;;;;;5072682;28;20477;-76
2022/04/06 00:09:03;;;;;;;1.60;1.20;;;10.50;98.20;;;;;;5071650;28;20457;-76
2022/04/06 00:11:30;;;;;;;1.53;1.10;;;10.50;98.20;;;;;;5075400;28;20957;-76
2022/04/06 00:13:57;;;;;;;1.60;1.17;;;10.50;98.20;;;;;;5072496;28;20552;-76
2022/04/06 00:16:24;;;;;;;1.50;1.10;;;10.50;98.20;;;;;;5072752;28;20485;-76
2022/04/06 00:18:51;;;;;;;1.53;1.20;;;10.50;98.20;;;;;;5073038;28;20457;-76
2022/04/06 00:21:19;;;;;;;1.53;1.10;;;10.50;98.20;;;;;;5072551;28;20481;-76
2022/04/06 00:23:48;;;;;;;1.50;1.10;;;10.50;98.20;;;;;;5073370;28;20454;-76
2022/04/06 00:26:14;;;;;;;1.60;1.10;;;10.50;98.20;;;;;;5072359;28;20469;-77
2022/04/06 00:28:41;;;;;;;1.57;1.10;;;10.40;98.20;;;;;;5072541;28;20462;-77
2022/04/06 00:31:08;;;;;;;1.60;1.20;;;10.40;98.20;;;;;;5072548;28;20460;-76
2022/04/06 00:33:35;;;;;;;1.50;1.10;;;10.40;98.20;;;;;;5070391;28;20464;-76
2022/04/06 00:36:01;;;;;;;1.57;1.20;;;10.40;98.20;;;;;;5072109;28;20771;-77
2022/04/06 00:38:28;;;;;;;1.50;1.10;;;10.50;98.20;;;;;;5076301;28;20457;-76
2022/04/06 00:40:57;;;;;;;1.57;1.10;;;10.40;98.20;;;;;;5072772;28;20495;-76
2022/04/06 00:43:24;;;;;;;1.53;1.10;;;10.40;98.20;;;;;;5075930;28;20457;-76
2022/04/06 00:45:51;;;;;;;1.50;1.07;;;10.40;98.20;;;;;;5075914;28;20563;-75
2022/04/06 00:48:17;;;;;;;1.53;1.10;;;10.40;98.20;;;;;;5072736;28;20465;-78
2022/04/06 00:50:45;;;;;;;1.50;1.10;;;10.40;98.20;;;;;;5075781;28;20476;-78
2022/04/06 00:53:14;;;;;;;1.50;1.10;;;10.40;98.20;;;;;;5076009;28;20468;-77
2022/04/06 00:55:41;;;;;;;1.57;1.10;;;10.40;98.20;;;;;;5075541;28;20489;-77
2022/04/06 00:58:09;;;;;;;1.50;1.10;;;10.40;98.20;;;;;;5075988;28;20461;-77
2022/04/06 01:00:36;;;;;;;1.53;1.10;;;10.40;98.20;;;;;;5075417;28;20847;-77
2022/04/06 01:03:03;;;;;;;1.53;1.10;;;10.40;98.20;;;;;;5075322;28;20549;-77
2022/04/06 01:05:30;;;;;;;1.50;1.10;;;10.30;98.20;;;;;;5074453;28;20489;-77
2022/04/06 01:08:00;;;;;;;1.50;1.10;;;10.30;98.20;;;;;;5074864;28;20466;-78
2022/04/06 01:10:27;;;;;;;2.43;1.93;;;10.30;98.20;;;;;;5078919;28;20508;-78
2022/04/06 01:12:55;;;;;;;1.60;1.20;;;10.30;98.20;;;;;;5071384;28;20473;-77
2022/04/06 01:15:24;;;;;;;1.50;1.10;;;10.30;98.20;;;;;;5074660;28;20485;-78
2022/04/06 01:17:51;;;;;;;1.50;1.10;;;10.30;98.20;;;;;;5072466;28;20461;-77
2022/04/06 01:20:17;;;;;;;1.60;1.20;;;10.30;98.20;;;;;;5067068;28;20772;-77
2022/04/06 01:22:46;;;;;;;1.50;1.10;;;10.30;98.20;;;;;;5074999;28;20458;-77
2022/04/06 01:25:12;;;;;;;1.50;1.10;;;10.30;98.20;;;;;;5072066;28;20485;-77
2022/04/06 01:27:39;;;;;;;1.50;1.10;;;10.30;98.20;;;;;;5070107;28;20461;-77
2022/04/06 01:30:08;;;;;;;1.57;1.20;;;10.30;98.20;;;;;;5073593;28;20449;-77
2022/04/06 01:32:35;;;;;;;1.60;1.20;;;10.30;98.20;;;;;;5074989;28;20493;-77
2022/04/06 01:35:02;;;;;;;1.50;1.10;;;10.30;98.20;;;;;;5074407;28;20477;-77
2022/04/06 01:37:29;;;;;;;1.60;1.20;;;10.30;98.20;;;;;;5070488;28;20468;-77
2022/04/06 01:39:57;;;;;;;1.57;1.20;;;10.30;98.20;;;;;;5074320;28;20461;-77
2022/04/06 01:42:24;;;;;;;1.53;1.10;;;10.30;98.20;;;;;;5074002;28;20815;-78
2022/04/06 01:44:52;;;;;;;1.57;1.20;;;10.30;98.20;;;;;;5074782;28;20873;-77
2022/04/06 01:47:20;;;;;;;1.53;1.17;;;10.30;98.20;;;;;;5075375;28;20854;-77
2022/04/06 01:52:32;;;;;;;1.53;1.20;;;10.20;98.20;;;;;;5074964;28;20996;-77
2022/04/06 01:55:03;;;;;;;1.53;1.10;;;10.30;98.20;;;;;;5073362;28;20482;-77
2022/04/06 01:57:30;;;;;;;1.50;1.10;;;10.20;98.20;;;;;;5074496;28;20457;-77
2022/04/06 01:59:57;;;;;;;1.50;1.10;;;10.20;98.20;;;;;;5074659;28;20457;-77
2022/04/06 02:02:26;;;;;;;1.60;1.20;;;10.20;98.20;;;;;;5073690;28;20461;-77
2022/04/06 02:04:53;;;;;;;1.53;1.10;;;10.20;98.20;;;;;;5074548;28;20485;-77
2022/04/06 02:07:20;;;;;;;1.50;1.17;;;10.20;98.20;;;;;;5074136;28;20457;-77
2022/04/06 02:09:47;;;;;;;1.60;1.40;;;10.20;98.20;;;;;;5073867;28;20469;-77
2022/04/06 02:12:15;;;;;;;1.53;1.10;;;10.20;98.20;;;;;;5072992;28;20477;-78
2022/04/06 02:14:43;;;;;;;1.60;1.43;;;10.20;98.20;;;;;;5071077;28;20488;-77
2022/04/06 02:17:10;;;;;;;1.53;1.20;;;10.20;98.20;;;;;;5075408;28;20860;-77
2022/04/06 02:19:39;;;;;;;2.27;2.07;;;10.20;98.20;;;;;;5073696;28;20461;-77
2022/04/06 02:22:07;;;;;;;1.50;1.10;;;10.20;98.20;;;;;;5073636;28;20521;-77
2022/04/06 02:24:34;;;;;;;1.60;1.20;;;10.20;98.20;;;;;;5074060;28;20493;-77
2022/04/06 02:27:01;;;;;;;1.50;1.10;;;10.20;98.20;;;;;;5075248;28;20942;-77
2022/04/06 02:29:29;;;;;;;1.53;1.10;;;10.20;98.20;;;;;;5074377;28;20507;-77
2022/04/06 02:31:56;;;;;;;1.50;1.10;;;10.20;98.20;;;;;;5075002;28;20454;-77
2022/04/06 02:34:23;;;;;;;1.53;1.10;;;10.20;98.20;;;;;;5073219;28;20462;-77
2022/04/06 02:36:50;;;;;;;1.53;1.10;;;10.20;98.20;;;;;;5073150;28;20456;-77
2022/04/06 02:39:16;;;;;;;1.50;1.10;;;10.20;98.20;;;;;;5072879;28;20453;-77
2022/04/06 02:41:43;;;;;;;1.50;1.10;;;10.20;98.20;;;;;;5073145;28;20485;-77
2022/04/06 02:44:10;;;;;;;1.50;1.10;;;10.20;98.20;;;;;;5074360;28;20464;-77
2022/04/06 02:46:38;;;;;;;1.57;1.20;;;10.20;98.20;;;;;;5073368;28;20492;-77
2022/04/06 02:49:05;;;;;;;1.50;1.10;;;10.20;98.20;;;;;;5073666;28;20465;-77
2022/04/06 02:51:32;;;;;;;1.50;1.10;;;10.20;98.20;;;;;;5073086;28;20464;-77
2022/04/06 02:53:59;;;;;;;1.57;1.20;;;10.20;98.20;;;;;;5074004;28;20543;-77
2022/04/06 02:56:26;;;;;;;1.50;1.10;;;10.20;98.20;;;;;;5073324;28;20485;-77
2022/04/06 02:58:53;;;;;;;1.53;1.10;;;10.20;98.20;;;;;;5072948;28;20630;-77
2022/04/06 03:01:20;;;;;;;1.50;1.20;;;10.20;98.20;;;;;;5074100;28;20831;-77
2022/04/06 03:03:49;;;;;;;1.53;1.20;;;10.20;98.20;;;;;;5074279;28;20461;-77
2022/04/06 03:06:16;;;;;;;1.50;1.10;;;10.20;98.20;;;;;;5073371;28;20481;-75
2022/04/06 03:08:43;;;;;;;1.50;1.20;;;10.20;98.20;;;;;;5073648;28;20469;-75
2022/04/06 03:11:10;;;;;;;1.50;1.13;;;10.10;98.20;;;;;;5071669;28;20466;-75
2022/04/06 03:13:37;;;;;;;1.60;1.20;;;10.10;98.20;;;;;;5077853;28;20465;-75
2022/04/06 03:16:05;;;;;;;1.50;1.10;;;10.10;98.20;;;;;;5068053;28;20862;-75
2022/04/06 03:18:32;;;;;;;1.60;1.20;;;10.10;98.20;;;;;;5072992;28;21452;-75
2022/04/06 03:21:00;;;;;;;1.73;1.63;;;10.10;98.20;;;;;;5073009;28;20496;-76
2022/04/06 03:23:27;;;;;;;1.60;1.20;;;10.10;98.20;;;;;;5074610;28;20804;-76
2022/04/06 03:25:54;;;;;;;1.50;1.20;;;10.10;98.20;;;;;;5072455;28;20477;-76
2022/04/06 03:28:20;;;;;;;1.53;1.20;;;10.10;98.20;;;;;;5073297;28;20467;-76
2022/04/06 03:30:47;;;;;;;1.50;1.20;;;10.10;98.20;;;;;;5073122;28;20453;-76
2022/04/06 03:33:15;;;;;;;1.53;1.10;;;10.10;98.20;;;;;;5073618;28;20946;-76
2022/04/06 03:35:42;;;;;;;1.53;1.13;;;10.10;98.20;;;;;;5097391;22;20524;-75
2022/04/06 03:38:10;;;;;;;1.57;1.20;;;10.10;98.20;;;;;;5086732;28;20459;-75
2022/04/06 03:40:37;;;;;;;1.50;1.20;;;10.10;98.20;;;;;;5088726;28;20456;-75
2022/04/06 03:43:04;;;;;;;1.57;1.20;;;10.10;98.20;;;;;;5086782;28;20467;-76
2022/04/06 03:45:30;;;;;;;1.53;1.13;;;10.10;98.20;;;;;;5081467;28;20957;-76
2022/04/06 03:47:57;;;;;;;1.50;1.20;;;10.10;98.20;;;;;;5059211;28;20474;-75
2022/04/06 03:50:24;;;;;;;1.53;1.10;;;10.10;98.20;;;;;;5061552;28;20461;-75
2022/04/06 03:52:51;;;;;;;1.60;1.20;;;10.10;98.20;;;;;;5058579;28;20462;-75
2022/04/06 03:55:19;;;;;;;1.57;1.10;;;10.10;98.20;;;;;;5049502;28;20493;-75
2022/04/06 03:57:46;;;;;;;1.50;1.20;;;10.00;98.20;;;;;;5053913;28;20477;-75
2022/04/06 04:00:14;;;;;;;1.60;1.33;;;10.10;98.20;;;;;;5052954;28;20477;-75
2022/04/06 04:02:41;;;;;;;1.53;1.20;;;10.00;98.20;;;;;;5056172;28;20489;-75
2022/04/06 04:05:09;;;;;;;1.57;1.10;;;10.00;98.20;;;;;;5061023;28;20493;-75
2022/04/06 04:07:37;;;;;;;1.60;1.30;;;10.00;98.20;;;;;;5056344;28;20828;-75
2022/04/06 04:10:06;;;;;;;1.60;1.27;;;10.00;98.20;;;;;;5062297;28;20454;-75
2022/04/06 04:12:34;;;;;;;1.50;1.10;;;10.00;98.20;;;;;;5065276;28;20493;-75
2022/04/06 04:15:01;;;;;;;1.50;1.10;;;10.00;98.20;;;;;;5068141;28;20461;-75
2022/04/06 04:17:28;;;;;;;1.50;1.10;;;10.00;98.20;;;;;;5067089;28;20468;-76
2022/04/06 04:19:55;;;;;;;1.50;1.10;;;10.00;98.20;;;;;;5068890;28;20474;-74
2022/04/06 04:22:27;;;;;;;1.50;1.10;;;10.00;98.20;;;;;;5063555;28;21028;-75
2022/04/06 04:24:53;;;;;;;1.53;1.17;;;10.00;98.20;;;;;;5066291;28;20545;-75
2022/04/06 04:27:20;;;;;;;1.50;1.13;;;10.00;98.20;;;;;;5066102;28;20544;-76
2022/04/06 04:29:48;;;;;;;1.50;1.10;;;10.00;98.20;;;;;;5066320;28;20752;-75
2022/04/06 04:32:16;;;;;;;1.50;1.10;;;10.00;98.20;;;;;;5065591;28;20465;-76
2022/04/06 04:34:43;;;;;;;1.50;1.10;;;10.00;98.20;;;;;;5067346;28;20472;-76
2022/04/06 04:37:22;;;;;;;1.60;1.20;;;10.00;98.20;;;;;;5066619;28;20496;-76
2022/04/06 04:39:48;;;;;;;1.60;1.20;;;10.00;98.20;;;;;;5062738;28;20553;-75
2022/04/06 04:42:15;;;;;;;1.60;1.20;;;10.00;98.20;;;;;;5066399;28;20486;-75
2022/04/06 04:44:42;;;;;;;1.57;1.10;;;10.00;98.20;;;;;;5065300;28;20469;-76
2022/04/06 04:47:10;;;;;;;1.57;1.20;;;10.00;98.20;;;;;;5077388;28;20784;-76
2022/04/06 04:49:37;;;;;;;1.50;1.10;;;10.00;98.20;;;;;;5056626;28;20736;-75
2022/04/06 04:52:04;;;;;;;1.60;1.27;;;10.00;98.20;;;;;;5064482;28;20542;-75
2022/04/06 04:54:31;;;;;;;1.53;1.10;;;10.00;98.20;;;;;;5059280;28;20786;-76
2022/04/06 04:56:57;;;;;;;1.50;1.10;;;10.00;98.20;;;;;;5059005;28;20543;-75
2022/04/06 04:59:25;;;;;;;1.57;1.20;;;10.00;98.20;;;;;;5064575;28;20453;-76
2022/04/06 05:01:51;;;;;;;1.57;1.20;;;10.00;98.20;;;;;;5060677;28;20516;-76
2022/04/06 05:04:20;;;;;;;1.53;1.20;;;10.00;98.20;;;;;;5069900;28;20470;-75
2022/04/06 05:06:46;;;;;;;1.53;1.10;;;10.00;98.20;;;;;;5057738;28;20497;-76
2022/04/06 05:09:14;;;;;;;1.80;1.10;;;10.00;98.20;;;;;;5065954;28;21001;-74
2022/04/06 05:11:40;;;;;;;1.53;1.17;;;10.00;98.20;;;;;;5054045;28;21336;-75
2022/04/06 05:14:07;;;;;;;1.50;1.20;;;10.00;98.20;;;;;;5059203;28;20469;-75
2022/04/06 05:16:34;;;;;;;1.53;1.10;;;10.00;98.20;;;;;;5062740;28;20485;-74
2022/04/06 05:19:02;;;;;;;1.60;1.10;;;10.00;98.20;;;;;;5056755;28;20468;-75
2022/04/06 05:21:30;;;;;;;1.53;1.20;;;10.00;98.20;;;;;;5053635;28;20534;-76
2022/04/06 05:23:59;;;;;;;1.60;1.30;;;10.00;98.20;;;;;;5051984;28;20503;-76
2022/04/06 05:26:26;;;;;;;1.60;1.30;;;10.00;98.20;;;;;;5058804;28;20538;-76
2022/04/06 05:28:53;;;;;;;1.50;1.10;;;10.00;98.20;;;;;;5062309;28;20473;-75
2022/04/06 05:31:21;;;;;;;1.53;1.10;;;10.00;98.20;;;;;;5059613;28;20540;-76
2022/04/06 05:33:48;;;;;;;1.60;1.20;;;10.00;98.20;;;;;;5060835;28;20507;-75
2022/04/06 05:36:15;;;;;;;1.50;1.10;;;10.00;98.20;;;;;;5059705;28;20714;-76
2022/04/06 05:38:43;;;;;;;1.57;1.20;;;10.00;98.20;;;;;;5059672;28;20970;-75
2022/04/06 05:41:10;;;;;;;1.57;1.20;;;10.00;98.20;;;;;;5059308;28;20857;-75
2022/04/06 05:43:37;;;;;;;1.53;1.20;;;10.00;98.20;;;;;;5056005;28;20870;-76
2022/04/06 05:46:04;;;;;;;1.50;1.10;;;10.00;98.20;;;;;;5058991;28;20485;-75
2022/04/06 05:48:30;;;;;;;1.60;1.20;;;10.00;98.20;;;;;;5058065;28;20469;-77
2022/04/06 05:50:57;;;;;;;1.50;1.10;;;10.00;98.20;;;;;;5057645;28;20978;-76
2022/04/06 05:53:24;;;;;;;1.50;1.10;;;10.00;98.20;;;;;;5060673;28;20519;-78
2022/04/06 05:55:52;;;;;;;1.50;1.10;;;10.00;98.20;;;;;;5067715;28;20567;-76
2022/04/06 05:58:19;;;;;;;1.50;1.10;;;10.00;98.20;;;;;;5051207;28;20477;-75
2022/04/06 06:00:46;;;;;;;1.50;1.10;;;10.10;98.20;;;;;;5055747;28;20497;-79
2022/04/06 06:03:13;;;;;;;1.50;1.20;;;10.10;98.20;;;;;;5064416;28;20524;-77
2022/04/06 06:05:40;;;;;;;1.60;1.20;;;10.10;98.20;;;;;;5061511;28;20486;-80
2022/04/06 06:08:07;;;;;;;1.60;1.20;;;10.10;98.20;;;;;;5068267;28;20465;-76
2022/04/06 06:10:34;;;;;;;1.53;1.20;;;10.10;98.20;;;;;;5062879;28;20574;-77
2022/04/06 06:13:02;;;;;;;1.50;1.10;;;10.10;98.20;;;;;;5065293;28;20465;-75
2022/04/06 06:15:29;;;;;;;1.50;1.20;;;10.10;98.20;;;;;;5059699;28;20481;-76
2022/04/06 06:17:56;;;;;;;1.50;1.10;;;10.10;98.20;;;;;;5062357;28;20493;-78
2022/04/06 06:20:23;;;;;;;1.50;1.10;;;10.10;98.20;;;;;;5062772;28;20470;-76
2022/04/06 06:22:50;;;;;;;1.50;1.10;;;10.10;98.20;;;;;;5051611;28;20954;-80
2022/04/06 06:25:19;;;;;;;1.50;1.10;;;10.10;98.20;;;;;;5051486;28;20500;-77
2022/04/06 06:27:46;;;;;;;1.50;1.10;;;10.10;98.20;;;;;;5066552;28;20958;-78
2022/04/06 06:30:14;;;;;;;1.50;1.20;;;10.10;98.20;;;;;;5054574;28;20512;-77
2022/04/06 06:32:42;;;;;;;1.50;1.20;;;10.10;98.20;;;;;;5056101;28;20468;-76
2022/04/06 06:35:10;;;;;;;1.50;1.10;;;10.10;98.20;;;;;;5065750;28;20505;-79
2022/04/06 06:37:37;;;;;;;1.50;1.10;;;10.10;98.20;;;;;;5055936;28;20466;-76
2022/04/06 06:40:05;;;;;;;1.50;1.10;;;10.10;98.20;;;;;;5060692;28;20473;-78
2022/04/06 06:42:32;;;;;;;1.50;1.10;;;10.10;98.20;;;;;;5063656;28;20485;-77
2022/04/06 06:44:59;;;;;;;1.50;1.10;;;10.10;98.20;;;;;;5058962;28;20500;-78
2022/04/06 06:47:27;;;;;;;1.57;1.10;;;10.20;98.20;;;;;;5055178;28;20466;-76
2022/04/06 06:49:54;;;;;;;1.50;1.10;;;10.20;98.20;;;;;;5059263;28;20473;-80
2022/04/06 06:52:21;;;;;;;1.50;1.10;;;10.20;98.20;;;;;;5059580;28;20542;-80
2022/04/06 06:54:48;;;;;;;1.50;1.10;;;10.30;98.20;;;;;;5063732;28;20488;-77
2022/04/06 06:57:15;;;;;;;1.57;1.13;;;10.30;98.20;;;;;;5066598;28;20476;-77
2022/04/06 06:59:42;;;;;;;1.50;1.20;;;10.30;98.20;;;;;;5066934;28;21128;-78
2022/04/06 07:02:09;;;;;;;1.50;1.10;;;10.30;98.20;;;;;;5055241;28;20491;-77
2022/04/06 07:04:37;;;;;;;1.50;1.00;;;10.40;98.20;;;;;;5067993;28;20461;-77
2022/04/06 07:07:05;;;;;;;1.53;1.10;;;10.40;98.20;;;;;;5057806;28;20500;-76
2022/04/06 07:09:32;;;;;;;1.50;1.10;;;10.40;98.20;;;;;;5065766;28;20457;-80
2022/04/06 07:11:58;;;;;;;1.57;1.10;;;10.50;98.20;;;;;;5065573;28;20504;-76
2022/04/06 07:14:26;;;;;;;1.60;1.20;;;10.50;98.20;;;;;;5063784;28;20493;-76
2022/04/06 07:16:54;;;;;;;1.50;1.10;;;10.50;98.20;;;;;;5066173;28;20875;-76
2022/04/06 07:19:21;;;;;;;1.50;1.10;;;10.50;98.20;;;;;;5063978;28;20535;-81
2022/04/06 07:21:50;;;;;;;1.50;1.10;;;10.60;98.20;;;;;;5058861;28;20481;-79
2022/04/06 07:24:17;;;;;;;1.50;1.10;;;10.50;98.20;;;;;;5053243;28;20468;-76
2022/04/06 07:26:44;;;;;;;1.53;1.10;;;10.60;98.20;;;;;;5058348;28;20485;-77
2022/04/06 07:29:14;;;;;;;1.53;1.10;;;10.50;98.20;;;;;;5058548;28;20464;-77
2022/04/06 07:31:42;;;;;;;1.50;1.10;;;10.60;98.20;;;;;;5057941;28;20512;-79
2022/04/06 07:34:09;;;;;;;1.50;1.20;;;10.60;98.20;;;;;;5063543;28;20596;-78
2022/04/06 07:36:37;;;;;;;1.53;1.10;;;10.70;98.20;;;;;;5063044;28;20500;-76
2022/04/06 07:39:06;;;;;;;1.53;1.00;;;10.70;98.20;;;;;;5059156;28;20827;-76
2022/04/06 07:41:33;;;;;;;1.50;1.10;;;10.70;98.20;;;;;;5060291;28;20484;-76
2022/04/06 07:44:00;;;;;;;1.50;1.10;;;10.70;98.20;;;;;;5066147;28;20535;-78
2022/04/06 07:46:27;;;;;;;1.50;1.10;;;10.80;98.20;;;;;;5058517;28;21019;-76
2022/04/06 07:48:54;;;;;;;1.50;1.10;;;10.80;98.20;;;;;;5073371;28;20472;-79
2022/04/06 07:51:21;;;;;;;1.50;1.10;;;10.70;98.20;;;;;;5048398;28;20582;-77
2022/04/06 07:53:48;;;;;;;1.50;1.10;;;10.80;98.20;;;;;;5061699;28;20517;-77
2022/04/06 07:56:16;;;;;;;1.53;1.10;;;10.80;98.20;;;;;;5060817;28;20485;-76
2022/04/06 07:58:43;;;;;;;1.50;1.10;;;10.80;98.20;;;;;;5053287;28;20454;-77
2022/04/06 08:01:10;;;;;;;1.57;1.27;;;10.70;98.20;;;;;;5064105;28;20472;-75
2022/04/06 08:03:37;;;;;;;1.53;1.10;;;10.70;98.20;;;;;;5049994;28;20492;-76
2022/04/06 08:06:04;;;;;;;1.57;1.20;;;10.70;98.20;;;;;;5051109;28;20490;-77
2022/04/06 08:08:31;;;;;;;1.53;1.10;;;10.70;98.20;;;;;;5053474;28;20494;-73
2022/04/06 08:10:58;;;;;;;1.50;1.10;;;10.70;98.20;;;;;;5062215;28;20468;-75
2022/04/06 08:13:26;;;;;;;1.50;1.10;;;10.70;98.20;;;;;;5057274;28;20462;-74
2022/04/06 08:15:53;;;;;;;1.50;1.10;;;10.70;98.20;;;;;;5057715;28;20947;-79
2022/04/06 08:18:22;;;;;;;1.50;1.10;;;10.70;98.20;;;;;;5056366;28;20527;-79
2022/04/06 08:20:49;;;;;;;1.50;1.20;;;10.80;98.20;;;;;;5056452;28;20465;-75
2022/04/06 08:23:23;;;;;;;1.50;1.10;;;10.80;98.20;;;;;;5058010;28;20485;-75
2022/04/06 08:26:18;;;;;;;1.50;1.10;;;10.80;98.20;;;;;;5056908;28;20927;-77
2022/04/06 08:28:47;;;;;;;1.53;1.17;;;10.80;98.20;;;;;;5053840;28;20462;-77
2022/04/06 08:31:13;;;;;;;1.53;1.10;;;10.90;98.20;;;;;;5052118;28;20458;-77
2022/04/06 08:33:40;;;;;;;1.60;1.10;;;10.90;98.20;;;;;;5056191;28;20465;-75
2022/04/06 08:36:09;;;;;;;1.60;1.20;;;11.00;98.20;;;;;;5061381;28;20895;-76
2022/04/06 08:38:36;;;;;;;1.50;1.10;;;11.00;98.20;;;;;;5057758;28;20481;-75
2022/04/06 08:41:07;;;;;;;1.50;1.10;;;11.00;98.20;;;;;;5059674;28;20850;-76
2022/04/06 08:43:43;;;;;;;1.50;1.10;;;11.00;97.80;;;;;;5061572;28;21036;-78
2022/04/06 08:46:12;;;;;;;1.50;1.10;;;11.00;97.80;;;;;;5064196;28;20569;-74
2022/04/06 08:48:39;;;;;;;1.60;1.20;;;11.10;97.50;;;;;;5057700;28;20468;-75
2022/04/06 08:51:17;;;;;;;1.50;1.20;;;11.10;97.10;;;;;;5042100;28;20705;-77
2022/04/06 08:53:45;;;;;;;1.50;1.10;;;11.10;97.20;;;;;;5047162;28;20466;-77
2022/04/06 08:56:13;;;;;;;1.50;1.10;;;11.10;97.00;;;;;;5056464;28;21063;-75
2022/04/06 08:58:40;;;;;;;1.50;1.10;;;11.10;96.90;;;;;;5053463;28;20461;-74
2022/04/06 09:01:07;;;;;;;1.50;1.10;;;11.10;96.10;;;;;;5055193;28;20457;-75
2022/04/06 09:03:35;;;;;;;1.50;1.10;;;11.10;95.60;;;;;;5049901;28;20500;-74
2022/04/06 09:06:05;;;;;;;1.50;1.00;;;11.20;96.00;;;;;;5062266;28;21190;-73
2022/04/06 09:08:35;;;;;;;1.50;1.10;;;11.20;95.50;;;;;;5055345;28;20468;-79
2022/04/06 09:11:08;;;;;;;2.20;1.40;;;11.30;95.20;;;;;;5067571;28;20461;-78
2022/04/06 09:13:35;;;;;;;1.50;1.00;;;11.40;94.80;;;;;;5060996;28;20457;-76
2022/04/06 09:16:02;;;;;;;1.50;1.10;;;11.50;93.70;;;;;;5065255;28;20926;-79
2022/04/06 09:18:38;;;;;;;1.50;1.00;;;11.60;94.00;;;;;;5053648;28;20465;-78
2022/04/06 09:21:05;;;;;;;1.50;1.17;;;11.70;93.80;;;;;;5054699;28;20526;-78
2022/04/06 09:23:33;;;;;;;1.50;1.00;;;11.80;93.00;;;;;;5064242;28;20543;-79
2022/04/06 09:26:04;;;;;;;1.50;1.00;;;12.00;93.20;;;;;;5060683;28;21071;-78
2022/04/06 09:28:31;;;;;;;1.50;1.00;;;12.10;93.30;;;;;;5066194;28;20564;-79
2022/04/06 09:30:59;;;;;;;1.50;1.10;;;12.20;93.50;;;;;;5062731;28;20939;-77
2022/04/06 09:33:30;;;;;;;1.50;1.10;;;12.30;93.30;;;;;;5057702;28;20461;-75
2022/04/06 09:38:31;;;;;;;1.50;1.10;;;12.50;92.20;;;;;;5047544;28;20612;-76
2022/04/06 09:41:02;;;;;;;1.50;1.03;;;12.60;92.20;;;;;;5051132;28;20556;-76
2022/04/06 09:43:31;;;;;;;1.50;1.10;;;12.60;92.10;;;;;;5044367;28;20484;-76
2022/04/06 09:49:05;;;;;;;1.50;1.00;;;12.70;90.50;;;;;;5052118;28;20446;-76
2022/04/06 09:51:32;;;;;;;1.50;1.00;;;12.70;91.20;;;;;;5046589;28;20510;-77
2022/04/06 09:54:03;;;;;;;1.50;1.00;;;12.70;90.90;;;;;;5049469;28;20462;-76
2022/04/06 09:56:31;;;;;;;1.50;1.00;;;12.70;90.50;;;;;;5048795;28;20490;-77
2022/04/06 09:58:59;;;;;;;1.50;1.00;;;12.70;90.40;;;;;;5053474;28;20466;-77
2022/04/06 10:01:31;;;;;;;1.50;1.10;;;12.60;90.60;;;;;;5052271;28;20477;-76
2022/04/06 10:04:02;;;;;;;1.50;1.07;;;12.50;90.90;;;;;;5047679;28;20920;-77
2022/04/06 10:06:34;;;;;;;1.50;1.00;;;12.40;90.50;;;;;;5047283;28;20491;-77
2022/04/06 10:09:04;;;;;;;1.50;1.00;;;12.40;90.70;;;;;;5046682;28;20469;-77
2022/04/06 10:11:31;;;;;;;1.50;1.00;;;12.30;91.10;;;;;;5041845;28;20498;-77
2022/04/06 10:13:58;;;;;;;1.50;1.00;;;12.30;91.60;;;;;;5041287;28;20465;-76
2022/04/06 10:16:25;;;;;;;1.50;1.00;;;12.30;91.90;;;;;;5044466;28;21029;-76
2022/04/06 10:18:53;;;;;;;1.50;1.00;;;12.30;91.90;;;;;;5043555;28;20478;-77
2022/04/06 10:21:25;;;;;;;1.50;1.00;;;12.30;92.00;;;;;;5041570;28;20523;-76
2022/04/06 10:24:11;;;;;;;1.50;1.10;;;12.30;91.60;;;;;;5046165;28;20520;-76
2022/04/06 10:26:52;;;;;;;1.50;1.00;;;12.30;92.30;;;;;;5041820;28;20486;-76
2022/04/06 10:29:19;;;;;;;1.60;1.37;;;12.30;92.70;;;;;;5037848;28;20478;-77
2022/04/06 10:31:46;;;;;;;1.50;1.00;;;12.30;92.60;;;;;;5043419;28;20469;-77
2022/04/06 10:34:22;;;;;;;1.50;1.00;;;12.40;93.40;;;;;;5047061;28;20463;-79
2022/04/06 10:37:11;;;;;;;1.50;1.00;;;12.50;93.50;;;;;;5048461;28;20488;-78
2022/04/06 10:40:00;;;;;;;1.50;1.00;;;12.50;92.40;;;;;;5062097;28;20961;-76
2022/04/06 10:42:33;;;;;;;1.50;1.00;;;12.40;92.30;;;;;;5054585;28;20476;-77
2022/04/06 10:45:00;;;;;;;1.50;1.00;;;12.40;92.70;;;;;;5060451;28;20470;-77
2022/04/06 10:47:29;;;;;;;1.50;1.00;;;12.40;93.00;;;;;;5066082;28;20488;-77
2022/04/06 10:50:21;;;;;;;1.50;0.90;;;12.40;92.70;;;;;;5064380;28;20875;-79
2022/04/06 10:52:48;;;;;;;1.50;1.00;;;12.40;92.60;;;;;;5048787;28;20502;-76
2022/04/06 10:55:22;;;;;;;1.50;1.00;;;12.50;93.90;;;;;;5064654;28;20860;-79
2022/04/06 10:58:01;;;;;;;1.50;1.00;;;12.70;92.90;;;;;;5028453;28;20585;-78
2022/04/06 11:00:29;;;;;;;1.50;1.00;;;12.80;92.40;;;;;;5061725;28;20973;-77
2022/04/06 11:03:02;;;;;;;1.50;1.10;;;12.80;92.20;;;;;;5056285;28;22089;-78
2022/04/06 11:05:48;;;;;;;1.50;1.00;;;12.90;92.10;;;;;;5056966;28;20485;-79
2022/04/06 11:11:43;;;;;;;1.50;0.90;;;13.00;91.90;;;;;;5056649;28;20460;-79
2022/04/06 11:14:12;;;;;;;1.50;1.00;;;13.00;92.50;;;;;;5061571;28;20461;-78
2022/04/06 11:16:46;;;;;;;1.50;1.00;;;13.20;92.80;;;;;;5060332;28;20917;-78
2022/04/06 11:19:14;;;;;;;1.50;1.00;;;13.40;92.00;;;;;;5056974;28;20477;-78
2022/04/06 11:21:48;;;;;;;1.50;1.07;;;13.70;92.30;;;;;;5062245;28;20461;-79
2022/04/06 11:24:23;;;;;;;1.50;1.00;;;14.10;90.40;;;;;;5068923;28;20488;-78
2022/04/06 11:26:52;;;;;;;1.53;1.00;;;14.50;90.30;;;;;;5066361;28;20480;-82
2022/04/06 11:29:25;;;;;;;1.50;0.90;;;14.70;88.90;;;;;;5053761;28;20546;-76
2022/04/06 11:31:57;;;;;;;1.50;0.90;;;15.00;88.00;;;;;;5055589;28;20460;-77
2022/04/06 11:34:35;;;;;;;1.50;1.00;;;15.10;87.00;;;;;;5063912;28;20561;-77
2022/04/06 11:37:03;;;;;;;1.50;1.00;;;15.10;86.40;;;;;;5063178;28;20809;-78
2022/04/06 11:39:31;;;;;;;1.50;1.00;;;14.90;86.70;;;;;;5055955;28;20466;-76
2022/04/06 11:41:59;;;;;;;1.50;1.00;;;14.80;87.10;;;;;;5057476;28;20870;-77
2022/04/06 11:44:28;;;;;;;1.50;1.00;;;14.80;88.00;;;;;;5057772;28;20889;-77
2022/04/06 11:46:55;;;;;;;1.50;1.00;;;14.80;87.80;;;;;;5042586;28;20478;-77
2022/04/06 11:49:24;;;;;;;1.50;1.00;;;14.70;87.30;;;;;;5053959;28;20504;-78
2022/04/06 11:51:52;;;;;;;1.50;1.00;;;14.70;87.80;;;;;;5055818;28;20472;-77
2022/04/06 11:54:19;;;;;;;1.47;0.90;;;14.70;88.20;;;;;;5056242;28;20489;-78
2022/04/06 11:56:52;;;;;;;1.50;1.00;;;14.70;87.70;;;;;;5062672;28;20481;-77
2022/04/06 11:59:19;;;;;;;1.50;1.00;;;14.60;86.90;;;;;;5063049;28;20470;-79
2022/04/06 12:01:47;;;;;;;1.50;0.90;;;14.50;87.80;;;;;;5060002;28;20612;-76
2022/04/06 12:04:16;;;;;;;1.50;1.00;;;14.30;88.00;;;;;;5060400;28;20489;-77
2022/04/06 12:06:43;;;;;;;1.50;1.00;;;14.20;88.50;;;;;;5063164;28;20481;-77
2022/04/06 12:09:10;;;;;;;1.50;1.00;;;14.10;89.20;;;;;;5063000;28;20469;-77
2022/04/06 12:11:39;;;;;;;1.50;1.00;;;14.10;89.00;;;;;;5058095;28;20461;-77
2022/04/06 12:14:10;;;;;;;1.50;1.00;;;14.00;89.30;;;;;;5061519;28;20984;-77
2022/04/06 12:16:38;;;;;;;1.50;1.00;;;14.00;90.20;;;;;;5059695;28;20489;-76
2022/04/06 12:19:12;;;;;;;1.50;1.00;;;13.90;89.50;;;;;;5056148;28;21429;-76
2022/04/06 12:21:42;;;;;;;1.50;1.00;;;13.80;89.60;;;;;;5056867;28;20497;-77
2022/04/06 12:24:11;;;;;;;1.50;1.00;;;13.70;90.20;;;;;;5062315;28;20513;-76
2022/04/06 12:26:45;;;;;;;1.50;1.00;;;13.60;89.80;;;;;;5061154;28;20485;-77
2022/04/06 12:29:15;;;;;;;1.50;1.00;;;13.50;90.50;;;;;;5056498;28;20857;-76
2022/04/06 12:31:43;;;;;;;1.50;1.00;;;13.50;90.50;;;;;;5062447;28;20538;-77
2022/04/06 12:34:30;;;;;;;1.50;1.00;;;13.50;90.50;;;;;;5066008;28;20850;-76
2022/04/06 12:36:57;;;;;;;1.50;1.00;;;13.40;90.80;;;;;;5064390;28;20783;-77
2022/04/06 12:39:24;;;;;;;1.50;1.00;;;13.40;90.90;;;;;;5065958;28;20461;-76
2022/04/06 12:41:53;;;;;;;1.50;0.93;;;13.30;90.20;;;;;;5052165;28;20986;-76
2022/04/06 12:44:20;;;;;;;1.50;1.00;;;13.10;90.50;;;;;;5059812;28;20481;-76
2022/04/06 12:46:49;;;;;;;1.50;0.90;;;13.00;90.80;;;;;;5063436;28;20516;-75
2022/04/06 12:49:22;;;;;;;1.50;1.00;;;13.00;91.50;;;;;;5062385;28;20843;-75
2022/04/06 12:52:02;;;;;;;1.50;1.00;;;13.00;91.80;;;;;;5060151;28;20461;-76
2022/04/06 12:54:31;;;;;;;1.50;1.00;;;13.00;92.40;;;;;;5063149;28;20978;-76
2022/04/06 12:57:06;;;;;;;1.50;1.00;;;13.00;92.30;;;;;;5059173;28;21010;-76
2022/04/06 12:59:41;;;;;;;1.50;1.00;;;12.90;91.20;;;;;;5060501;28;20509;-76
2022/04/06 13:02:28;;;;;;;1.50;1.00;;;12.80;91.40;;;;;;5064728;28;20463;-76
2022/04/06 13:04:59;;;;;;;1.50;1.10;;;12.80;91.60;;;;;;5063451;28;21012;-76
2022/04/06 13:07:26;;;;;;;1.60;1.37;;;12.80;91.70;;;;;;5058599;28;20572;-75